Friday, October 24, 2014
23:16 UTC
  |  Log In   |  Register Free
Airport Search:

De Kalb County Airport
(KGWB)

De Kalb County Airport Diagram
No Airport Diagram Available

FAA data valid effective September 18, 2014 - November 13, 2014 (unless otherwise noted).

 
 
 
 
 
 
 
 
 
 
 
 
 
 

Current Aviation Weather for De Kalb County Airport (KGWB)

The most recent METAR observation for KGWB was updated at: 2311
METAR Summary (Translated METAR)
KGWB
242255Z AUTO 00000KT 10SM SCT037 13/08 A3000 RMK AO2
KANQ
242255Z AUTO 00000KT 14/10 A2998 RMK
(20 nm NW from KGWB)
KFWA
242254Z 24004KT 10SM SCT036 BKN043 BKN250 14/10 A3001 RMK AO2 SLP165 T01440100
(20.6 nm SW from KGWB)
TAF Summary (Translated TAF)
KFWA
(20.6 nm SW from KGWB)
241724Z 2418/2518 22007KT P6SM BKN030 FM241900 22006KT P6SM SCT035 FM250900 22006KT 5SM BR OVC015 FM251700 27010KT P6SM BKN025
  Airport Weather Conditions for KGWB

 Current Weather at GWB
55° F
Partly Cloudy
North winds at 0.0 mph
GWB NOAA Radar

Pressure: 30.00 in
Humidity: 72%
Wind: Calm
Dew Point: 46.4°F
Visibility: 10.00 mi


Airport Weather Forecast for KGWB

Translated METAR and TAF for KGWB
Translated METAR for KGWB (2311 UTC 24 October 2014)
found at http://aviationweather.gov/adds/metars/
 
METAR text: KGWB 242255Z AUTO 00000KT 10SM SCT037 13/08 A3000 RMK AO2
Conditions at: KGWB (AUBURN DEKALB C , IN, US) observed 2255 UTC 24 October 2014
Temperature: 13.0°C (55°F)
Dewpoint: 8.0°C (46°F) [RH = 72%]
Pressure (altimeter): 30.00 inches Hg (1016.0 mb)
Winds: calm
Visibility: 10 or more miles (16+ km)
Ceiling: at least 12,000 feet AGL
Clouds: scattered clouds at 3700 feet AGL
Weather: automated observation with no human augmentation;
there may or may not be significant weather present at this time
Translated TAF for KGWB

There is no translated TAF available for this airport

Find All Airport Services Find A Hotel Find A Rental Car Find A Golf Course Find A Restaurant $100 Hamburger



FBO's on the Field
FBO Company Facility Photos Services Transportation Aviation Fuel Prices: Prices include tax
Catering Weather Repair Courtesy Rental Type 100LL JetA JetA+ MOGAS 8087
 
Century Aviation

This FBO has not yet been rated
FS:Shell
Last Updated: Oct-02
Login to update fuel prices
SS:
Contact Century AviationMore FBO Information
 
Add another FBO Facility Photos Catering Weather Repair Courtesy Rental Type 100LL JetA JetA+ MOGAS 8087
Services Transportation Aviation Fuel Prices: Prices include tax


model-print
model-print
model-print
model-print